North Yarmouth, Maine
Current Conditions -  °F | °C
As of 8:51 PM on Tuesday 21 Oct 2014 (Local Time) from KPWM Reporting Station
Moderate Rain Moderate Rain  
Wind Chill: 51°   Ceiling: 500
Heat Index: 51°   Visibility: 3mi
Dew Point: 49°   Wind: 12mph
Humidity: 92%   Direction: 30°NNE
Pressure: 30.02"   Gusts: NA
Location:  43.84°N, 70.23°W
Report Text: KPWM 220051Z 03010KT 3SM RA BR OVC005 11/09 A3002 RMK AO2 SLP164 P0013 T01060094
Loading
Personal Weather Stations






























Interactive Weather Map
Tropical Storm Tracking
New forecast layout! Learn more

10-Day Weather Forecast

Advertisements
Track Severe Weather on mobile